Hlavní strana
METAR-TAF:

METAR-TAF

Letiště :

Letiště Sarajevo

Sarajevo, Bosna a Hercegovina

zeměpisná šířka: 43-49N, zeměpisná délka: 018-20E, výška: 511 m

Aktuální stav počasí

Zpráva byla vytvořena před 23 minutami, v 13:30 UTC
Severoseverozápadní vítr 4 kt, proměnlivý mezi západoseverozápadním a severoseverovýchodním
Teplota 27°C
Vlhkost vzduchu 24%
Tlak 1022 hPa
Viditelnost 10 km a více
Žádná oblačnost pod 1500 m, nevyskytují se cumulonimby.

METAR: LQSA 141330Z 33004KT 290V020 CAVOK 27/05 Q1022 NOSIG

Čas: 15:53 (13:53 UTC)

Předpověď počasí

Zpráva byla vytvořena před 2 hodinami a 53 minutami, v 11:00 UTC
Předpověď platná od 14 v 12 UTC do 15 v 12 UTC
Jihovýchodní vítr 6 kt
Viditelnost 10 km a více
Žádná oblačnost pod 1500 m, nevyskytují se cumulonimby.
Dočasný
od 15 v 09 UTC do 15 v 12 UTC
Jihozápadní vítr 12 kt

TAF: LQSA 141100Z 1412/1512 14006KT CAVOK TX28/1414Z TN08/1505Z TEMPO 1509/1512 23012KT

Stav a předpovědi počasí z více než 4 000 letišť (zprávy METAR a TAF).

Červené a žluté tečky na mapě představují dostupné meteorologické stanice.

Když kurzor umístíte na tečku, zobrazí se název stanice.

Pak kliknutím zobrazíte stav a předpověď počasí.

Chcete-li změnit mapu, kliknutím na zelené tlačítko se znaménkem +mapu přiblížíte, kliknutím na zelené tlačítko se znaménkem – mapu oddálíte a kliknutím na zelené šipky přejdete na sousední mapy.


METAR-TAF: